Ioannis L — SVA3690 — position and weather

sailwx.info

Track history (hours):
 
Tides and Currents Weather Stations Pressure Air Temp Water Temp Dewpoint Dewpoint Depression Visibility Wind Speed Wind Dir Waves Ship Positions

Ioannis L

Last reported at 2017-Sep-19 17:07 UTC. Time now 2017-Sep-19 20:40 UTC.
Position N 37°58' E 023°33'.

Length 60 m.

Type: Tanker. MMSI: 241112000.

Date/timePositionNaut miles runAvg speedWind from/ knotsBaromVisibWave heightAir tempDewpointWater temp
2017-Sep-19 17:07N 37°58' E 023°33'0 0.5
2017-Sep-19 17:00N 37°58' E 023°33'2 4.4
2017-Sep-19 16:30N 37°56' E 023°34'3 6.5
2017-Sep-19 16:00N 37°53' E 023°32'3 6.2
2017-Sep-19 15:30N 37°50' E 023°30'3 6.2
2017-Sep-19 15:00N 37°47' E 023°29'1 0.5
2017-Sep-19 13:21N 37°46' E 023°28'1 1.7
2017-Sep-19 13:00N 37°47' E 023°29'3 5.5
2017-Sep-19 12:30N 37°49' E 023°30'3 5.5
2017-Sep-19 12:01N 37°52' E 023°31'3 5.2
2017-Sep-19 11:31N 37°54' E 023°33'3 5.3
2017-Sep-19 11:01N 37°56' E 023°35'2 3.2
2017-Sep-19 10:31N 37°58' E 023°33'0 0.0
2017-Sep-19 08:34N 37°58' E 023°33'0 0.1
2017-Sep-19 08:30N 37°58' E 023°33'2 3.9
2017-Sep-19 08:00N 37°56' E 023°34'3 6.2
2017-Sep-19 07:30N 37°54' E 023°32'3 6.1
2017-Sep-19 07:00N 37°51' E 023°29'3 5.4
2017-Sep-19 06:30N 37°49' E 023°29'2 4.5
2017-Sep-19 06:00N 37°46' E 023°28'0 0.0
2017-Sep-19 04:33N 37°46' E 023°28'0 0.0
2017-Sep-19 04:30N 37°46' E 023°28'1 2.8
2017-Sep-19 04:00N 37°48' E 023°29'2 5.0
2017-Sep-19 03:30N 37°50' E 023°31'3 5.4
2017-Sep-19 03:00N 37°52' E 023°32'3 5.3
2017-Sep-19 02:30N 37°54' E 023°34'3 5.3
2017-Sep-19 02:00N 37°57' E 023°35'1 2.5
2017-Sep-19 01:30N 37°58' E 023°33'0 0.0
2017-Sep-18 18:09N 37°58' E 023°33'0 1.8
2017-Sep-18 18:00N 37°57' E 023°33'2 4.3
2017-Sep-18 17:31N 37°55' E 023°34'3 6.2
2017-Sep-18 17:00N 37°53' E 023°31'3 5.9
2017-Sep-18 16:30N 37°50' E 023°29'3 5.9
2017-Sep-18 16:00N 37°48' E 023°27'3 6.3
2017-Sep-18 15:30N 37°46' E 023°25'3 5.9
2017-Sep-18 15:00N 37°43' E 023°24'1 0.2
2017-Sep-18 08:43N 37°42' E 023°22'0 0.0
2017-Sep-18 08:30N 37°42' E 023°22'3 5.2
2017-Sep-18 08:01N 37°43' E 023°25'3 5.5
2017-Sep-18 07:30N 37°46' E 023°25'5 5.4
2017-Sep-18 06:29N 37°51' E 023°29'3 5.6
2017-Sep-18 06:01N 37°53' E 023°31'3 5.9
2017-Sep-18 05:31N 37°55' E 023°33'2 4.0
2017-Sep-18 05:00N 37°57' E 023°34'1 1.8
2017-Sep-18 04:30N 37°58' E 023°33'0 0.0
2017-Sep-18 04:01N 37°58' E 023°33'0 0.0
2017-Sep-18 03:31N 37°58' E 023°33'0 0.0
2017-Sep-17 09:43N 37°58' E 023°33'0 0.3
2017-Sep-17 09:31N 37°58' E 023°33'2 4.5
2017-Sep-17 09:00N 37°55' E 023°34'3 6.1
2017-Sep-17 08:30N 37°53' E 023°33'3 6.1
2017-Sep-17 08:00N 37°50' E 023°31'3 6.1
2017-Sep-17 07:30N 37°47' E 023°29'1 0.5
2017-Sep-17 05:15N 37°46' E 023°28'0 1.2
2017-Sep-17 05:00N 37°47' E 023°29'3 5.4
2017-Sep-17 04:30N 37°49' E 023°30'3 5.6
2017-Sep-17 04:00N 37°52' E 023°31'3 5.7
2017-Sep-17 03:30N 37°54' E 023°33'3 5.7
2017-Sep-17 03:00N 37°57' E 023°35'2 3.1
2017-Sep-17 02:30N 37°58' E 023°33'0 0.0
2017-Sep-16 19:09N 37°58' E 023°33'0 0.0
2017-Sep-16 18:54N 37°58' E 023°33'0 0.0
2017-Sep-16 18:30N 37°58' E 023°33'0 0.0
2017-Sep-16 17:50N 37°58' E 023°33'1 4.1
2017-Sep-16 17:30N 37°57' E 023°35'3 5.7
2017-Sep-16 17:00N 37°54' E 023°33'3 6.0
2017-Sep-16 16:30N 37°52' E 023°31'3 6.2
2017-Sep-16 16:00N 37°49' E 023°30'3 5.4
2017-Sep-16 15:30N 37°46' E 023°28'0 0.0
2017-Sep-16 13:59N 37°46' E 023°28'2 3.5
2017-Sep-16 13:31N 37°48' E 023°29'3 5.5
2017-Sep-16 13:00N 37°50' E 023°31'3 5.3
2017-Sep-16 12:30N 37°53' E 023°32'3 5.5
2017-Sep-16 12:00N 37°55' E 023°34'2 4.1
2017-Sep-16 11:30N 37°57' E 023°34'1 0.3
2017-Sep-16 08:42N 37°58' E 023°33'0 0.0
2017-Sep-16 08:31N 37°58' E 023°33'1 2.1
2017-Sep-16 08:00N 37°57' E 023°34'3 5.5
2017-Sep-16 07:30N 37°54' E 023°33'3 6.2
2017-Sep-16 07:00N 37°52' E 023°31'3 6.3
2017-Sep-16 06:30N 37°49' E 023°30'3 1.2
2017-Sep-16 04:14N 37°46' E 023°28'1 2.3
2017-Sep-16 04:00N 37°47' E 023°29'3 5.3
2017-Sep-16 03:31N 37°49' E 023°30'3 5.4
2017-Sep-16 03:00N 37°52' E 023°31'3 5.7
2017-Sep-16 02:31N 37°54' E 023°33'3 5.7
2017-Sep-16 02:01N 37°57' E 023°35'2 3.0
2017-Sep-16 01:30N 37°58' E 023°33'0 0.0
2017-Sep-15 15:32N 37°58' E 023°33'0 0.2
2017-Sep-15 15:30N 37°58' E 023°33'2 4.2
2017-Sep-15 15:01N 37°56' E 023°34'3 6.3
2017-Sep-15 14:31N 37°53' E 023°32'3 6.5
2017-Sep-15 14:00N 37°51' E 023°29'3 6.4
2017-Sep-15 13:31N 37°48' E 023°27'3 6.2
2017-Sep-15 13:01N 37°45' E 023°25'3 5.6
2017-Sep-15 12:30N 37°43' E 023°24'1 0.2
2017-Sep-15 05:58N 37°42' E 023°22'2 4.3
2017-Sep-15 05:30N 37°43' E 023°25'3 5.1
2017-Sep-15 05:00N 37°46' E 023°25'3 5.2
2017-Sep-15 04:30N 37°48' E 023°26'3 5.3
2017-Sep-15 04:00N 37°50' E 023°28'3 5.4
2017-Sep-15 03:30N 37°52' E 023°30'3 5.6
2017-Sep-15 03:00N 37°54' E 023°32'3 5.7
2017-Sep-15 02:30N 37°57' E 023°35'1 2.9
2017-Sep-15 02:00N 37°58' E 023°33'0 0.0
2017-Sep-14 16:49N 37°58' E 023°33'1 4.1
2017-Sep-14 16:31N 37°57' E 023°35'3 5.7
2017-Sep-14 16:00N 37°54' E 023°33'3 6.5
2017-Sep-14 15:30N 37°52' E 023°31'3 6.5
2017-Sep-14 15:00N 37°49' E 023°28'3 6.4
2017-Sep-14 14:30N 37°47' E 023°26'2 4.1
2017-Sep-14 14:00N 37°45' E 023°26'0 0.0
2017-Sep-14 07:41N 37°45' E 023°26'0 1.9
2017-Sep-14 07:30N 37°44' E 023°25'2 4.2
2017-Sep-14 07:00N 37°47' E 023°25'2 4.9
2017-Sep-14 06:30N 37°49' E 023°27'3 5.1
2017-Sep-14 06:00N 37°51' E 023°29'2 5.0
2017-Sep-14 05:30N 37°53' E 023°31'3 5.3
2017-Sep-14 05:00N 37°55' E 023°33'3 5.1
2017-Sep-14 04:31N 37°57' E 023°35'1 0.2
2017-Sep-13 21:20N 37°58' E 023°33'1 4.1
2017-Sep-13 21:00N 37°57' E 023°35'3 6.2
2017-Sep-13 20:29N 37°54' E 023°33'3 6.3
2017-Sep-13 19:59N 37°51' E 023°31'3 5.6
2017-Sep-13 19:30N 37°49' E 023°30'3 5.3
2017-Sep-13 19:00N 37°46' E 023°28'0 0.0
2017-Sep-13 17:03N 37°46' E 023°28'0 0.1
2017-Sep-13 17:00N 37°46' E 023°28'2 4.0
2017-Sep-13 16:30N 37°48' E 023°30'3 5.4
2017-Sep-13 16:00N 37°51' E 023°31'3 5.1
2017-Sep-13 15:30N 37°53' E 023°32'3 5.2
2017-Sep-13 15:00N 37°55' E 023°33'2 3.7
2017-Sep-13 14:30N 37°57' E 023°34'1 0.2
2017-Sep-13 10:54N 37°58' E 023°33'0 0.0
2017-Sep-13 10:30N 37°58' E 023°33'1 2.5
2017-Sep-13 10:00N 37°57' E 023°35'3 5.6
2017-Sep-13 09:30N 37°55' E 023°33'3 6.7
2017-Sep-13 09:00N 37°52' E 023°30'3 5.3
2017-Sep-13 08:30N 37°50' E 023°29'3 5.3
2017-Sep-13 07:59N 37°47' E 023°28'0 0.2
2017-Sep-13 05:55N 37°46' E 023°28'1 3.1
2017-Sep-13 05:31N 37°47' E 023°29'3 5.4
2017-Sep-13 05:00N 37°50' E 023°30'3 5.2
2017-Sep-13 04:31N 37°52' E 023°32'3 5.0
2017-Sep-13 04:01N 37°54' E 023°33'3 5.4
2017-Sep-13 03:31N 37°57' E 023°35'1 2.7
2017-Sep-13 03:00N 37°58' E 023°33'0 0.0
2017-Sep-12 16:42N 37°58' E 023°33'0 2.0
2017-Sep-12 16:30N 37°57' E 023°33'2 4.1
2017-Sep-12 16:00N 37°55' E 023°34'3 6.6
2017-Sep-12 15:30N 37°53' E 023°31'3 6.4
2017-Sep-12 15:00N 37°50' E 023°29'3 6.3
2017-Sep-12 14:30N 37°47' E 023°26'3 6.2
2017-Sep-12 14:00N 37°45' E 023°25'3 0.5
2017-Sep-12 07:20N 37°42' E 023°22'0 0.7
2017-Sep-12 07:00N 37°43' E 023°22'2 5.1
2017-Sep-12 06:30N 37°43' E 023°25'3 5.6
2017-Sep-12 06:00N 37°46' E 023°25'3 5.6
2017-Sep-12 05:30N 37°49' E 023°27'3 5.4
2017-Sep-12 05:00N 37°51' E 023°29'3 5.3
2017-Sep-12 04:30N 37°53' E 023°31'3 5.2
2017-Sep-12 04:00N 37°55' E 023°33'2 4.7
2017-Sep-12 03:30N 37°57' E 023°35'1 0.1
2017-Sep-11 17:22N 37°58' E 023°33'2 4.3
2017-Sep-11 17:00N 37°57' E 023°35'3 5.8
2017-Sep-11 16:31N 37°54' E 023°33'3 5.3
2017-Sep-11 16:00N 37°52' E 023°31'3 5.4
2017-Sep-11 15:30N 37°50' E 023°29'3 5.8
2017-Sep-11 15:01N 37°48' E 023°27'3 6.0
2017-Sep-11 14:30N 37°45' E 023°25'1 0.1
2017-Sep-11 07:50N 37°45' E 023°26'1 1.9
2017-Sep-11 07:30N 37°45' E 023°25'3 5.3
2017-Sep-11 07:00N 37°48' E 023°26'3 5.6
2017-Sep-11 06:26N 37°50' E 023°28'2 5.6
2017-Sep-11 06:00N 37°52' E 023°30'3 5.5
2017-Sep-11 05:30N 37°54' E 023°32'3 5.4
2017-Sep-11 05:00N 37°57' E 023°34'1 2.8
2017-Sep-11 04:30N 37°58' E 023°33'0 0.0
2017-Sep-10 09:30N 37°58' E 023°33'2 3.9
2017-Sep-10 09:00N 37°56' E 023°34'3 6.3
2017-Sep-10 08:30N 37°53' E 023°32'3 6.1
2017-Sep-10 08:00N 37°51' E 023°31'3 6.3
2017-Sep-10 07:30N 37°48' E 023°29'1 2.9
2017-Sep-10 07:00N 37°46' E 023°28'0 0.0
2017-Sep-10 05:12N 37°46' E 023°28'0 2.4
2017-Sep-10 05:01N 37°47' E 023°29'3 5.7
2017-Sep-10 04:30N 37°49' E 023°30'3 5.8
2017-Sep-10 04:00N 37°52' E 023°32'3 5.7
2017-Sep-10 03:31N 37°54' E 023°34'3 5.4
2017-Sep-10 03:00N 37°57' E 023°35'1 2.8
2017-Sep-10 02:31N 37°58' E 023°33'  
Track history (hours):
 
Tides and Currents Weather Stations Pressure Air Temp Water Temp Dewpoint Dewpoint Depression Visibility Wind Speed Wind Dir Waves Ship Positions

Ioannis L

Last reported at 2017-Sep-19 17:07 UTC. Time now 2017-Sep-19 20:40 UTC.
Position N 37°58' E 023°33'.

Length 60 m.

Type: Tanker. MMSI: 241112000.

Date/timePositionNaut miles runAvg speedWind from/ knotsBaromVisibWave heightAir tempDewpointWater temp
2017-Sep-19 17:07N 37°58' E 023°33'0 0.5
2017-Sep-19 17:00N 37°58' E 023°33'2 4.4
2017-Sep-19 16:30N 37°56' E 023°34'3 6.5
2017-Sep-19 16:00N 37°53' E 023°32'3 6.2
2017-Sep-19 15:30N 37°50' E 023°30'3 6.2
2017-Sep-19 15:00N 37°47' E 023°29'1 0.5
2017-Sep-19 13:21N 37°46' E 023°28'1 1.7
2017-Sep-19 13:00N 37°47' E 023°29'3 5.5
2017-Sep-19 12:30N 37°49' E 023°30'3 5.5
2017-Sep-19 12:01N 37°52' E 023°31'3 5.2
2017-Sep-19 11:31N 37°54' E 023°33'3 5.3
2017-Sep-19 11:01N 37°56' E 023°35'2 3.2
2017-Sep-19 10:31N 37°58' E 023°33'0 0.0
2017-Sep-19 08:34N 37°58' E 023°33'0 0.1
2017-Sep-19 08:30N 37°58' E 023°33'2 3.9
2017-Sep-19 08:00N 37°56' E 023°34'3 6.2
2017-Sep-19 07:30N 37°54' E 023°32'3 6.1
2017-Sep-19 07:00N 37°51' E 023°29'3 5.4
2017-Sep-19 06:30N 37°49' E 023°29'2 4.5
2017-Sep-19 06:00N 37°46' E 023°28'0 0.0
2017-Sep-19 04:33N 37°46' E 023°28'0 0.0
2017-Sep-19 04:30N 37°46' E 023°28'1 2.8
2017-Sep-19 04:00N 37°48' E 023°29'2 5.0
2017-Sep-19 03:30N 37°50' E 023°31'3 5.4
2017-Sep-19 03:00N 37°52' E 023°32'3 5.3
2017-Sep-19 02:30N 37°54' E 023°34'3 5.3
2017-Sep-19 02:00N 37°57' E 023°35'1 2.5
2017-Sep-19 01:30N 37°58' E 023°33'0 0.0
2017-Sep-18 18:09N 37°58' E 023°33'0 1.8
2017-Sep-18 18:00N 37°57' E 023°33'2 4.3
2017-Sep-18 17:31N 37°55' E 023°34'3 6.2
2017-Sep-18 17:00N 37°53' E 023°31'3 5.9
2017-Sep-18 16:30N 37°50' E 023°29'3 5.9
2017-Sep-18 16:00N 37°48' E 023°27'3 6.3
2017-Sep-18 15:30N 37°46' E 023°25'3 5.9
2017-Sep-18 15:00N 37°43' E 023°24'1 0.2
2017-Sep-18 08:43N 37°42' E 023°22'0 0.0
2017-Sep-18 08:30N 37°42' E 023°22'3 5.2
2017-Sep-18 08:01N 37°43' E 023°25'3 5.5
2017-Sep-18 07:30N 37°46' E 023°25'5 5.4
2017-Sep-18 06:29N 37°51' E 023°29'3 5.6
2017-Sep-18 06:01N 37°53' E 023°31'3 5.9
2017-Sep-18 05:31N 37°55' E 023°33'2 4.0
2017-Sep-18 05:00N 37°57' E 023°34'1 1.8
2017-Sep-18 04:30N 37°58' E 023°33'0 0.0
2017-Sep-18 04:01N 37°58' E 023°33'0 0.0
2017-Sep-18 03:31N 37°58' E 023°33'0 0.0
2017-Sep-17 09:43N 37°58' E 023°33'0 0.3
2017-Sep-17 09:31N 37°58' E 023°33'2 4.5
2017-Sep-17 09:00N 37°55' E 023°34'3 6.1
2017-Sep-17 08:30N 37°53' E 023°33'3 6.1
2017-Sep-17 08:00N 37°50' E 023°31'3 6.1
2017-Sep-17 07:30N 37°47' E 023°29'1 0.5
2017-Sep-17 05:15N 37°46' E 023°28'0 1.2
2017-Sep-17 05:00N 37°47' E 023°29'3 5.4
2017-Sep-17 04:30N 37°49' E 023°30'3 5.6
2017-Sep-17 04:00N 37°52' E 023°31'3 5.7
2017-Sep-17 03:30N 37°54' E 023°33'3 5.7
2017-Sep-17 03:00N 37°57' E 023°35'2 3.1
2017-Sep-17 02:30N 37°58' E 023°33'0 0.0
2017-Sep-16 19:09N 37°58' E 023°33'0 0.0
2017-Sep-16 18:54N 37°58' E 023°33'0 0.0
2017-Sep-16 18:30N 37°58' E 023°33'0 0.0
2017-Sep-16 17:50N 37°58' E 023°33'1 4.1
2017-Sep-16 17:30N 37°57' E 023°35'3 5.7
2017-Sep-16 17:00N 37°54' E 023°33'3 6.0
2017-Sep-16 16:30N 37°52' E 023°31'3 6.2
2017-Sep-16 16:00N 37°49' E 023°30'3 5.4
2017-Sep-16 15:30N 37°46' E 023°28'0 0.0
2017-Sep-16 13:59N 37°46' E 023°28'2 3.5
2017-Sep-16 13:31N 37°48' E 023°29'3 5.5
2017-Sep-16 13:00N 37°50' E 023°31'3 5.3
2017-Sep-16 12:30N 37°53' E 023°32'3 5.5
2017-Sep-16 12:00N 37°55' E 023°34'2 4.1
2017-Sep-16 11:30N 37°57' E 023°34'1 0.3
2017-Sep-16 08:42N 37°58' E 023°33'0 0.0
2017-Sep-16 08:31N 37°58' E 023°33'1 2.1
2017-Sep-16 08:00N 37°57' E 023°34'3 5.5
2017-Sep-16 07:30N 37°54' E 023°33'3 6.2
2017-Sep-16 07:00N 37°52' E 023°31'3 6.3
2017-Sep-16 06:30N 37°49' E 023°30'3 1.2
2017-Sep-16 04:14N 37°46' E 023°28'1 2.3
2017-Sep-16 04:00N 37°47' E 023°29'3 5.3
2017-Sep-16 03:31N 37°49' E 023°30'3 5.4
2017-Sep-16 03:00N 37°52' E 023°31'3 5.7
2017-Sep-16 02:31N 37°54' E 023°33'3 5.7
2017-Sep-16 02:01N 37°57' E 023°35'2 3.0
2017-Sep-16 01:30N 37°58' E 023°33'0 0.0
2017-Sep-15 15:32N 37°58' E 023°33'0 0.2
2017-Sep-15 15:30N 37°58' E 023°33'2 4.2
2017-Sep-15 15:01N 37°56' E 023°34'3 6.3
2017-Sep-15 14:31N 37°53' E 023°32'3 6.5
2017-Sep-15 14:00N 37°51' E 023°29'3 6.4
2017-Sep-15 13:31N 37°48' E 023°27'3 6.2
2017-Sep-15 13:01N 37°45' E 023°25'3 5.6
2017-Sep-15 12:30N 37°43' E 023°24'1 0.2
2017-Sep-15 05:58N 37°42' E 023°22'2 4.3
2017-Sep-15 05:30N 37°43' E 023°25'3 5.1
2017-Sep-15 05:00N 37°46' E 023°25'3 5.2
2017-Sep-15 04:30N 37°48' E 023°26'3 5.3
2017-Sep-15 04:00N 37°50' E 023°28'3 5.4
2017-Sep-15 03:30N 37°52' E 023°30'3 5.6
2017-Sep-15 03:00N 37°54' E 023°32'3 5.7
2017-Sep-15 02:30N 37°57' E 023°35'1 2.9
2017-Sep-15 02:00N 37°58' E 023°33'0 0.0
2017-Sep-14 16:49N 37°58' E 023°33'1 4.1
2017-Sep-14 16:31N 37°57' E 023°35'3 5.7
2017-Sep-14 16:00N 37°54' E 023°33'3 6.5
2017-Sep-14 15:30N 37°52' E 023°31'3 6.5
2017-Sep-14 15:00N 37°49' E 023°28'3 6.4
2017-Sep-14 14:30N 37°47' E 023°26'2 4.1
2017-Sep-14 14:00N 37°45' E 023°26'0 0.0
2017-Sep-14 07:41N 37°45' E 023°26'0 1.9
2017-Sep-14 07:30N 37°44' E 023°25'2 4.2
2017-Sep-14 07:00N 37°47' E 023°25'2 4.9
2017-Sep-14 06:30N 37°49' E 023°27'3 5.1
2017-Sep-14 06:00N 37°51' E 023°29'2 5.0
2017-Sep-14 05:30N 37°53' E 023°31'3 5.3
2017-Sep-14 05:00N 37°55' E 023°33'3 5.1
2017-Sep-14 04:31N 37°57' E 023°35'1 0.2
2017-Sep-13 21:20N 37°58' E 023°33'1 4.1
2017-Sep-13 21:00N 37°57' E 023°35'3 6.2
2017-Sep-13 20:29N 37°54' E 023°33'3 6.3
2017-Sep-13 19:59N 37°51' E 023°31'3 5.6
2017-Sep-13 19:30N 37°49' E 023°30'3 5.3
2017-Sep-13 19:00N 37°46' E 023°28'0 0.0
2017-Sep-13 17:03N 37°46' E 023°28'0 0.1
2017-Sep-13 17:00N 37°46' E 023°28'2 4.0
2017-Sep-13 16:30N 37°48' E 023°30'3 5.4
2017-Sep-13 16:00N 37°51' E 023°31'3 5.1
2017-Sep-13 15:30N 37°53' E 023°32'3 5.2
2017-Sep-13 15:00N 37°55' E 023°33'2 3.7
2017-Sep-13 14:30N 37°57' E 023°34'1 0.2
2017-Sep-13 10:54N 37°58' E 023°33'0 0.0
2017-Sep-13 10:30N 37°58' E 023°33'1 2.5
2017-Sep-13 10:00N 37°57' E 023°35'3 5.6
2017-Sep-13 09:30N 37°55' E 023°33'3 6.7
2017-Sep-13 09:00N 37°52' E 023°30'3 5.3
2017-Sep-13 08:30N 37°50' E 023°29'3 5.3
2017-Sep-13 07:59N 37°47' E 023°28'0 0.2
2017-Sep-13 05:55N 37°46' E 023°28'1 3.1
2017-Sep-13 05:31N 37°47' E 023°29'3 5.4
2017-Sep-13 05:00N 37°50' E 023°30'3 5.2
2017-Sep-13 04:31N 37°52' E 023°32'3 5.0
2017-Sep-13 04:01N 37°54' E 023°33'3 5.4
2017-Sep-13 03:31N 37°57' E 023°35'1 2.7
2017-Sep-13 03:00N 37°58' E 023°33'0 0.0
2017-Sep-12 16:42N 37°58' E 023°33'0 2.0
2017-Sep-12 16:30N 37°57' E 023°33'2 4.1
2017-Sep-12 16:00N 37°55' E 023°34'3 6.6
2017-Sep-12 15:30N 37°53' E 023°31'3 6.4
2017-Sep-12 15:00N 37°50' E 023°29'3 6.3
2017-Sep-12 14:30N 37°47' E 023°26'3 6.2
2017-Sep-12 14:00N 37°45' E 023°25'3 0.5
2017-Sep-12 07:20N 37°42' E 023°22'0 0.7
2017-Sep-12 07:00N 37°43' E 023°22'2 5.1
2017-Sep-12 06:30N 37°43' E 023°25'3 5.6
2017-Sep-12 06:00N 37°46' E 023°25'3 5.6
2017-Sep-12 05:30N 37°49' E 023°27'3 5.4
2017-Sep-12 05:00N 37°51' E 023°29'3 5.3
2017-Sep-12 04:30N 37°53' E 023°31'3 5.2
2017-Sep-12 04:00N 37°55' E 023°33'2 4.7
2017-Sep-12 03:30N 37°57' E 023°35'1 0.1
2017-Sep-11 17:22N 37°58' E 023°33'2 4.3
2017-Sep-11 17:00N 37°57' E 023°35'3 5.8
2017-Sep-11 16:31N 37°54' E 023°33'3 5.3
2017-Sep-11 16:00N 37°52' E 023°31'3 5.4
2017-Sep-11 15:30N 37°50' E 023°29'3 5.8
2017-Sep-11 15:01N 37°48' E 023°27'3 6.0
2017-Sep-11 14:30N 37°45' E 023°25'1 0.1
2017-Sep-11 07:50N 37°45' E 023°26'1 1.9
2017-Sep-11 07:30N 37°45' E 023°25'3 5.3
2017-Sep-11 07:00N 37°48' E 023°26'3 5.6
2017-Sep-11 06:26N 37°50' E 023°28'2 5.6
2017-Sep-11 06:00N 37°52' E 023°30'3 5.5
2017-Sep-11 05:30N 37°54' E 023°32'3 5.4
2017-Sep-11 05:00N 37°57' E 023°34'1 2.8
2017-Sep-11 04:30N 37°58' E 023°33'0 0.0
2017-Sep-10 09:30N 37°58' E 023°33'2 3.9
2017-Sep-10 09:00N 37°56' E 023°34'3 6.3
2017-Sep-10 08:30N 37°53' E 023°32'3 6.1
2017-Sep-10 08:00N 37°51' E 023°31'3 6.3
2017-Sep-10 07:30N 37°48' E 023°29'1 2.9
2017-Sep-10 07:00N 37°46' E 023°28'0 0.0
2017-Sep-10 05:12N 37°46' E 023°28'0 2.4
2017-Sep-10 05:01N 37°47' E 023°29'3 5.7
2017-Sep-10 04:30N 37°49' E 023°30'3 5.8
2017-Sep-10 04:00N 37°52' E 023°32'3 5.7
2017-Sep-10 03:31N 37°54' E 023°34'3 5.4
2017-Sep-10 03:00N 37°57' E 023°35'1 2.8
2017-Sep-10 02:31N 37°58' E 023°33'  

Dump ship's entire track history